createdAt,value
2022-12-23T00:03:51.234Z,4.81
2022-12-23T00:09:13.872Z,4.78
2022-12-23T00:14:53.826Z,4.77
2022-12-23T00:20:18.085Z,4.73
2022-12-23T00:25:42.182Z,4.70
2022-12-23T00:31:18.690Z,4.67
2022-12-23T00:36:43.465Z,4.62
2022-12-23T00:42:23.173Z,4.60
2022-12-23T00:48:03.443Z,4.59
2022-12-23T00:53:26.408Z,4.57
2022-12-23T00:58:48.589Z,4.54
2022-12-23T01:04:28.504Z,4.50
2022-12-23T01:09:50.783Z,4.48
2022-12-23T01:15:13.600Z,4.47
2022-12-23T01:20:35.974Z,4.44
2022-12-23T01:26:05.142Z,4.41
2022-12-23T01:31:29.708Z,4.38
2022-12-23T01:36:52.003Z,4.37
2022-12-23T01:42:38.413Z,4.33
2022-12-23T01:48:22.740Z,4.30
2022-12-23T01:53:52.401Z,4.24
2022-12-23T01:59:39.072Z,4.20
2022-12-23T02:05:03.059Z,4.14
2022-12-23T02:10:26.226Z,4.07
2022-12-23T02:16:20.498Z,3.99
2022-12-23T02:21:59.151Z,3.95
2022-12-23T02:27:32.035Z,3.87
2022-12-23T02:33:23.949Z,3.76
2022-12-23T02:38:54.569Z,3.69
2022-12-23T02:44:30.751Z,3.61
2022-12-23T02:49:57.437Z,3.50
2022-12-23T02:55:30.688Z,3.48
2022-12-23T03:00:55.986Z,3.32
2022-12-23T03:06:30.943Z,3.37
2022-12-23T03:12:28.409Z,3.37
2022-12-23T03:18:13.566Z,3.36
2022-12-23T03:23:55.832Z,3.35
2022-12-23T03:29:33.678Z,3.36
2022-12-23T03:35:00.159Z,3.37
2022-12-23T03:40:30.831Z,3.40
2022-12-23T03:46:06.259Z,3.34
2022-12-23T03:51:39.817Z,3.30
2022-12-23T03:57:06.770Z,3.29
2022-12-23T04:02:53.633Z,3.32
2022-12-23T04:08:30.108Z,3.32
2022-12-23T04:13:53.793Z,3.30
2022-12-23T04:19:16.190Z,3.28
2022-12-23T04:24:38.388Z,3.28
2022-12-23T04:30:01.073Z,3.26
2022-12-23T04:35:25.251Z,3.20
2022-12-23T04:40:47.437Z,3.17
2022-12-23T04:46:10.752Z,3.16
2022-12-23T04:51:33.224Z,3.12
2022-12-23T04:56:55.565Z,3.13
2022-12-23T05:02:17.868Z,3.14
2022-12-23T05:07:40.313Z,3.14
2022-12-23T05:13:02.585Z,3.16
2022-12-23T05:18:26.247Z,3.18
2022-12-23T05:23:48.763Z,3.14
2022-12-23T05:29:11.616Z,3.12
2022-12-23T05:34:33.932Z,3.08
2022-12-23T05:39:56.137Z,3.06
2022-12-23T05:45:18.676Z,3.03
2022-12-23T05:50:40.903Z,3.00
2022-12-23T05:56:03.250Z,3.00
2022-12-23T06:01:25.474Z,2.98
2022-12-23T06:06:47.780Z,2.95
2022-12-23T06:12:10.057Z,2.93
2022-12-23T06:17:32.507Z,2.94
2022-12-23T06:22:55.838Z,2.93
2022-12-23T06:28:18.562Z,2.92
2022-12-23T06:33:40.872Z,2.93
2022-12-23T06:39:03.791Z,2.92
2022-12-23T06:44:26.989Z,2.93
2022-12-23T06:49:49.665Z,2.95
2022-12-23T06:55:12.321Z,2.97
2022-12-23T07:00:35.443Z,3.01
2022-12-23T07:06:00.987Z,3.05
2022-12-23T07:11:23.334Z,3.06
2022-12-23T07:16:45.798Z,3.10
2022-12-23T07:22:09.046Z,3.14
2022-12-23T07:27:37.328Z,3.18
2022-12-23T07:38:39.090Z,3.37
2022-12-23T07:44:02.770Z,3.28
2022-12-23T07:49:25.173Z,3.30
2022-12-23T07:54:47.417Z,3.37
2022-12-23T08:00:14.456Z,3.40
2022-12-23T08:05:36.913Z,3.44
2022-12-23T08:11:01.296Z,3.48
2022-12-23T08:16:25.298Z,3.49
2022-12-23T08:21:48.071Z,3.52
2022-12-23T08:27:11.283Z,3.57
2022-12-23T08:32:34.085Z,3.60
2022-12-23T08:37:56.288Z,3.65
2022-12-23T08:43:19.410Z,3.66
2022-12-23T08:48:48.636Z,3.67
2022-12-23T08:54:07.828Z,3.74
2022-12-23T08:59:33.968Z,3.79
2022-12-23T09:04:56.200Z,3.82
2022-12-23T09:10:18.988Z,3.87
2022-12-23T09:15:41.225Z,3.87
2022-12-23T09:21:05.810Z,3.82
2022-12-23T09:26:32.728Z,3.78
2022-12-23T09:31:54.969Z,3.77
2022-12-23T09:37:17.208Z,3.77
2022-12-23T09:43:23.982Z,3.76
2022-12-23T09:48:57.249Z,3.79
2022-12-23T09:54:36.998Z,3.82
2022-12-23T10:00:12.659Z,3.87
2022-12-23T10:05:59.036Z,3.90
2022-12-23T10:11:28.572Z,3.98
2022-12-23T10:16:58.702Z,4.01
2022-12-23T10:22:16.893Z,3.96
2022-12-23T10:27:54.222Z,3.93
2022-12-23T10:33:39.800Z,3.95
2022-12-23T10:39:34.378Z,3.98
2022-12-23T10:45:13.745Z,3.98
2022-12-23T10:51:08.703Z,4.03
2022-12-23T10:56:32.253Z,4.10
2022-12-23T11:01:56.886Z,4.20
2022-12-23T11:13:02.739Z,4.33
2022-12-23T11:18:38.793Z,4.34
2022-12-23T11:24:15.938Z,4.21
2022-12-23T11:29:35.876Z,4.20
2022-12-23T11:34:59.286Z,4.22
2022-12-23T11:40:31.290Z,4.26
2022-12-23T11:45:55.175Z,4.25
2022-12-23T11:51:19.087Z,4.39
2022-12-23T11:56:43.883Z,4.36
2022-12-23T12:02:10.831Z,4.54
2022-12-23T12:07:34.200Z,4.80
2022-12-23T12:13:00.115Z,4.85
2022-12-23T12:18:26.013Z,4.95
2022-12-23T12:24:17.892Z,4.86
2022-12-23T12:30:08.080Z,4.93
2022-12-23T12:35:31.895Z,4.91
2022-12-23T12:41:07.695Z,4.97
2022-12-23T12:47:00.132Z,4.92
2022-12-23T12:52:38.599Z,4.90
2022-12-23T12:58:02.927Z,4.97
2022-12-23T13:03:56.790Z,5.03
2022-12-23T13:09:32.846Z,4.92
2022-12-23T13:15:38.588Z,4.93
2022-12-23T13:21:40.918Z,4.95
2022-12-23T13:27:37.924Z,4.94
2022-12-23T13:33:39.423Z,4.88
2022-12-23T13:39:33.688Z,4.83
2022-12-23T13:44:56.628Z,4.84
2022-12-23T13:50:26.659Z,4.85
2022-12-23T13:56:51.858Z,4.92
2022-12-23T14:02:33.347Z,4.78
2022-12-23T14:07:57.452Z,4.73
2022-12-23T14:13:21.551Z,4.69
2022-12-23T14:19:13.219Z,4.65
2022-12-23T14:25:00.334Z,4.62
2022-12-23T14:30:46.787Z,4.60
2022-12-23T14:36:29.867Z,4.64
2022-12-23T14:42:05.516Z,4.64
2022-12-23T14:47:46.705Z,4.62
2022-12-23T14:53:25.610Z,4.57
2022-12-23T14:59:05.124Z,4.54
2022-12-23T15:04:49.706Z,4.51
2022-12-23T15:10:25.870Z,4.49
2022-12-23T15:15:55.947Z,4.47
2022-12-23T15:21:23.860Z,4.51
2022-12-23T15:27:09.894Z,4.49
2022-12-23T15:32:16.138Z,4.44
2022-12-23T15:37:47.243Z,4.41
2022-12-23T15:43:10.739Z,4.41
2022-12-23T15:48:46.885Z,4.45
2022-12-23T15:54:11.506Z,4.50
2022-12-23T15:59:41.191Z,4.49
2022-12-23T16:05:08.668Z,4.51
2022-12-23T16:10:36.481Z,4.51
2022-12-23T16:15:59.385Z,4.52
2022-12-23T16:21:24.517Z,4.53
2022-12-23T16:26:48.406Z,4.49
2022-12-23T16:32:16.249Z,4.44
2022-12-23T16:37:38.522Z,4.44
2022-12-23T16:43:00.986Z,4.41
2022-12-23T16:48:33.870Z,4.41
2022-12-23T16:53:56.656Z,4.42
2022-12-23T16:59:21.062Z,4.43
2022-12-23T17:04:43.378Z,4.41
2022-12-23T17:10:06.070Z,4.40
2022-12-23T17:15:35.120Z,4.41
2022-12-23T17:20:58.789Z,4.42
2022-12-23T17:26:21.784Z,4.39
2022-12-23T17:31:45.959Z,4.40
2022-12-23T17:37:08.968Z,4.44
2022-12-23T17:42:39.138Z,4.43
2022-12-23T17:48:02.014Z,4.43
2022-12-23T17:53:26.779Z,4.39
2022-12-23T17:58:49.526Z,4.41
2022-12-23T18:04:13.016Z,4.38
2022-12-23T18:09:35.303Z,4.37
2022-12-23T18:14:57.830Z,4.38
2022-12-23T18:20:23.215Z,4.39
2022-12-23T18:25:45.898Z,4.37
2022-12-23T18:31:10.171Z,4.38
2022-12-23T18:36:39.059Z,4.31
2022-12-23T18:42:01.412Z,4.30
2022-12-23T18:47:24.079Z,4.32
2022-12-23T18:52:46.937Z,4.27
2022-12-23T18:58:10.625Z,4.26
2022-12-23T19:03:39.295Z,4.29
2022-12-23T19:09:02.402Z,4.29
2022-12-23T19:14:25.032Z,4.29
2022-12-23T19:19:47.380Z,4.28
2022-12-23T19:25:11.223Z,4.26
2022-12-23T19:30:35.691Z,4.25
2022-12-23T19:35:59.610Z,4.24
2022-12-23T19:41:22.377Z,4.22
2022-12-23T19:46:45.245Z,4.19
2022-12-23T19:52:08.584Z,4.15
2022-12-23T19:57:30.853Z,4.09
2022-12-23T20:02:58.492Z,4.09
2022-12-23T20:08:18.027Z,3.95
2022-12-23T20:13:40.236Z,3.84
2022-12-23T20:19:02.855Z,3.69
2022-12-23T20:24:26.510Z,3.62
2022-12-23T20:29:48.809Z,3.54
2022-12-23T20:35:11.368Z,3.41
2022-12-23T20:40:33.817Z,3.33
2022-12-23T20:45:56.769Z,3.25
2022-12-23T20:51:31.042Z,3.11
2022-12-23T20:57:01.105Z,2.82
2022-12-23T21:02:25.223Z,2.71
2022-12-23T21:07:47.936Z,2.69
2022-12-23T21:13:10.437Z,2.73
2022-12-23T21:18:32.936Z,2.94
2022-12-23T21:23:56.693Z,3.11
2022-12-23T21:29:20.670Z,3.20
2022-12-23T21:34:42.859Z,3.12
2022-12-23T21:40:05.157Z,3.12
2022-12-23T21:45:28.066Z,3.07
2022-12-23T21:50:51.903Z,3.04
2022-12-23T21:56:21.246Z,3.04
2022-12-23T22:01:44.234Z,3.23
2022-12-23T22:07:06.676Z,3.15
2022-12-23T22:12:29.233Z,3.19
2022-12-23T22:17:51.523Z,3.15
2022-12-23T22:23:13.877Z,3.04
2022-12-23T22:28:37.275Z,2.96
2022-12-23T22:33:59.610Z,2.91
2022-12-23T22:39:24.868Z,2.85
2022-12-23T22:44:47.479Z,2.82
2022-12-23T22:50:09.993Z,2.79
2022-12-23T22:55:33.084Z,2.76
2022-12-23T23:00:55.296Z,2.67
2022-12-23T23:12:09.185Z,2.49
2022-12-23T23:17:33.244Z,2.29
2022-12-23T23:22:55.500Z,2.02
2022-12-23T23:28:18.292Z,1.95
2022-12-23T23:33:40.713Z,1.80
2022-12-23T23:39:03.553Z,1.70
2022-12-23T23:44:26.370Z,1.66
2022-12-23T23:49:49.085Z,2.04
2022-12-23T23:55:11.531Z,1.55
